Tiempo atmosférico en la estación meteorológica de El Pinar, Depósito, Santa Cruz de Tenerife (948 m.)



Fecha
DESCASC
Temp. máxima en grados centígrados (hora)
DESCASC
Temp. mínima en grados centígrados (hora)
DESCASC
Temp. media en grados centígrados
DESCASC
Racha de viento máxima en m/sg (hora)
DESCASC
Velocidad máxima media en intervalos de 10 minutos(hora)
DESCASC
Precipitaciones diarias en mm
DESCASC
Precipitaciones de 00:00 a 06:00 en mm
DESCASC
Precipitaciones de 06:00 a 12:00 en mm
DESCASC
Precipitaciones de 12:00 a 18:00 en mm
DESCASC
Precipitaciones de 18:00 a 24:00 en mm
DESCASC
11-08-2020 24.7 (16:50) 17.5 (23:00) 21.1 11.67 (22:10) 4.44 (22:50) 0 0 0 0 0
10-08-2020 26 (13:30) 17.6 (05:20) 21.8 9.72 (08:50) 4.44 (05:00) 0 0 0 0 0
09-08-2020 28.2 (13:10) 19.2 (01:40) 23.7 11.67 (22:20) 4.72 (03:10) 0 0 0 0 0
08-08-2020 27.6 (14:30) 18.1 (05:00) 22.9 12.5 (23:50) 4.72 (20:20) 0 0 0 0 0
07-08-2020 22.6 (14:00) 14.6 (00:00) 18.6 6.11 (14:50) 3.33 (14:30) 0 0 0 0 0
06-08-2020 22.6 (17:50) 14.6 (07:50) 18.6 5.56 (18:20) 3.33 (18:10) 0 0 0 0 0
05-08-2020 26.9 (18:30) 20.1 (00:00) 23.5 9.72 (02:30) 4.17 (03:40) 0 0 0 0 0
04-08-2020 27.7 (13:20) 19.2 (08:00) 23.5 11.67 (02:50) 5.28 (00:30) 0 0 0 0 0
03-08-2020 34.8 (16:40) 24.7 (07:40) 29.8 14.72 (09:30) 5.28 (21:50) 0 0 0 0 0
02-08-2020 32.6 (15:30) 23.4 (06:30) 28 10.28 (23:40) 3.89 (19:20) 0 0 0 0 0
01-08-2020 30.8 (17:20) 21 (00:00) 25.9 6.11 (21:40) 3.61 (17:30) 0 0 0 0 0
31-07-2020 25.7 (16:10) 12.6 (07:20) 19.2 5.83 (20:40) 3.06 (12:10) 0 0 0 0 0
30-07-2020 28.8 (15:20) 14.2 (00:00) 21.5 8.89 (02:00) 3.61 (13:40) 0 0 0 0 0
29-07-2020 32 (11:30) 20 (00:00) 26 11.39 (01:10) 5 (06:40) 0 0 0 0 0
28-07-2020 31.8 (13:00) 21.7 (08:10) 26.8 8.89 (22:40) 4.44 (22:40) 0 0 0 0 0
27-07-2020 31 (16:10) 21.7 (00:00) 26.4 10 (00:40) 4.44 (00:10) 0 0 0 0 0
26-07-2020 30.4 (13:50) 21.7 (00:00) 26.1 10.83 (23:59) 5.28 (23:59) 0 0 0 0 0
25-07-2020 31.8 (14:10) 21.9 (22:10) 26.8 10.56 (05:50) 5 (06:00) 0 0 0 0 0
24-07-2020 32.5 (14:30) 22.9 (00:00) 27.7 10.56 (23:30) 4.44 (04:00) 0 0 0 0 0
23-07-2020 32.5 (11:40) 21.3 (00:00) 26.9 10.56 (22:20) 3.89 (22:20) 0 0 0 0 0
22-07-2020 30.2 (16:10) 21 (06:40) 25.6 6.39 (04:30) 3.06 (16:20) 0 0 0 0 0
21-07-2020 32.3 (14:20) 17 (00:00) 24.6 10.28 (03:30) 5 (03:40) 0 0 0 0 0
20-07-2020 33.3 (13:50) 22.8 (23:59) 28 12.78 (04:10) 5 (06:50) 0 0 0 0 0
19-07-2020 35.5 (16:50) 26.8 (00:00) 31.1 10.28 (21:30) 4.72 (23:50) 0 0 0 0 0
18-07-2020 33.8 (15:20) 23.1 (00:00) 28.4 6.39 (22:10) 3.06 (16:30) 0 0 0 0 0
17-07-2020 31.5 (16:50) 19.6 (00:00) 25.6 5.83 (15:30) 3.06 (13:10) 0 0 0 0 0
16-07-2020 28.3 (14:30) 18.6 (00:00) 23.4 6.39 (15:50) 3.33 (14:10) 0 0 0 0 0
15-07-2020 30.3 (18:00) 20.2 (08:00) 25.3 10.83 (04:10) 4.72 (04:30) 0 0 0 0 0

Gráficas

Temp. máximas Temp. mínimas Temp. medias Precipitaciones Rachas de viento máximas Velocidades máximas media en intervalos de 10 minutos

Datos horarios

Fecha y hora oficial Temperatura (ºC) Velocidad del viento (km/h) Dirección del viento Racha (km/h) Dirección de racha Precipitación (mm) Presión (hPa) Tendencia (hPa) Humedad (%)
2020-08-13 23:00:00 17.7 4 Sudeste 10 Norte 0 -- -- 27
2020-08-13 22:00:00 17.1 4 Noroeste 15 Noroeste 0 -- -- 49
2020-08-13 21:00:00 18.9 7 Noroeste 13 Noroeste 0 -- -- 49
2020-08-13 20:00:00 19.9 3 Oeste 15 Sur 0 -- -- 68
2020-08-13 19:00:00 20.8 5 Sudoeste 16 Sur 0 -- -- 67
2020-08-13 18:00:00 22.6 9 Sur 21 Sur 0 -- -- 61
2020-08-13 17:00:00 21 7 Sur 18 Sudeste 0 -- -- 65
2020-08-13 16:00:00 19.5 9 Este 27 Sur 0 -- -- 72
2020-08-13 15:00:00 20.1 14 Sudeste 27 Sudeste 0 -- -- 69
2020-08-13 14:00:00 21.8 11 Sudeste 25 Sudeste 0 -- -- 59
2020-08-13 13:00:00 23.8 9 Sudeste 25 Noroeste 0 -- -- 49
2020-08-13 12:00:00 23.4 10 Norte 30 Norte 0 -- -- 45
2020-08-13 11:00:00 20.9 12 Este 21 Sudeste 0 -- -- 58
2020-08-13 10:00:00 21.5 6 Sur 28 Noroeste 0 -- -- 57
2020-08-13 09:00:00 18.8 14 Norte 28 Norte 0 -- -- 55
2020-08-13 08:00:00 16.1 9 Norte 18 Norte 0 -- -- 50
2020-08-13 07:00:00 16.1 8 Norte 35 Noroeste 0 -- -- 54
2020-08-13 06:00:00 15.8 17 Noroeste 38 Noroeste 0 -- -- 71
2020-08-13 05:00:00 17.2 11 Noroeste 24 Noroeste 0 -- -- 50
2020-08-13 04:00:00 16.3 9 Norte 24 Noroeste 0 -- -- 65
2020-08-13 03:00:00 16.3 10 Noroeste 29 Noroeste 0 -- -- 65
2020-08-13 02:00:00 16.8 11 Norte 23 Norte 0 -- -- 65
2020-08-13 01:00:00 17.2 11 Noroeste 21 Noroeste 0 -- -- 61
2020-08-13 00:00:00 16.8 9 Norte 27 Norte 0 -- -- 60
2020-08-12 23:00:00 17 14 Norte 31 Noroeste 0 -- -- 68
2020-08-12 22:00:00 18.5 9 Norte 27 Norte 0 -- -- 47
2020-08-12 21:00:00 18.4 10 Norte 26 Norte 0 -- -- 53
2020-08-12 20:00:00 18.8 13 Norte 39 Noroeste 0 -- -- 63
2020-08-12 19:00:00 20.3 10 Sudeste 22 Este 0 -- -- 64
2020-08-12 18:00:00 21.4 7 Este 18 Sudeste 0 -- -- 63
2020-08-12 17:00:00 23.5 6 Sur 34 Noroeste 0 -- -- 56
2020-08-12 16:00:00 23.2 16 Noroeste 35 Noroeste 0 -- -- 56
2020-08-12 15:00:00 22.4 8 Nordeste 23 Nordeste 0 -- -- 58
2020-08-12 14:00:00 20.9 8 Nordeste 32 Este 0 -- -- 63
2020-08-12 13:00:00 23.2 12 Nordeste 40 Nordeste 0 -- -- 54
2020-08-12 12:00:00 22 13 Norte 46 Norte 0 -- -- 56
2020-08-12 11:00:00 21 17 Norte 38 Norte 0 -- -- 58
2020-08-12 10:00:00 19.4 9 Nordeste 30 Norte 0 -- -- 66
2020-08-12 09:00:00 17.1 15 Norte 48 Norte 0 -- -- 77
2020-08-12 08:00:00 15.8 18 Norte 39 Norte 0 -- -- 81
2020-08-12 07:00:00 16.6 13 Norte 37 Noroeste 0 -- -- 67
2020-08-12 06:00:00 16.1 16 Norte 45 Noroeste 0 -- -- 72
2020-08-12 05:00:00 16.6 12 Norte 37 Norte 0 -- -- 67
2020-08-12 04:00:00 17.8 14 Norte 31 Norte 0 -- -- 62
2020-08-12 03:00:00 17.7 12 Norte 35 Norte 0 -- -- 57
2020-08-12 02:00:00 17.6 13 Norte 35 Norte 0 -- -- 64
2020-08-12 01:00:00 20.3 9 Nordeste 28 Norte 0 -- -- 40
2020-08-12 00:00:00 19.3 7 Este 31 Norte 0 -- -- 33
2020-08-11 23:00:00 17.5 14 Noroeste 42 Este 0 -- -- 57
2020-08-11 22:00:00 18.8 10 Nordeste 34 Nordeste 0 -- -- 44
2020-08-11 21:00:00 19.9 6 Norte 26 Noroeste 0 -- -- 37
2020-08-11 20:00:00 21.4 6 Norte 22 Norte 0 -- -- 30
2020-08-11 19:00:00 21.9 9 Este 26 Nordeste 0 -- -- 49
2020-08-11 18:00:00 23.2 12 Norte 31 Norte 0 -- -- 50
2020-08-11 17:00:00 24.4 11 Norte 30 Noroeste 0 -- -- 45
2020-08-11 16:00:00 22.6 12 Este 22 Sudeste 0 -- -- 50
2020-08-11 15:00:00 22.2 9 Sudeste 21 Nordeste 0 -- -- 57
2020-08-11 14:00:00 22.4 14 Este 25 Este 0 -- -- 55
2020-08-11 13:00:00 21.4 11 Este 20 Este 0 -- -- 60
2020-08-11 12:00:00 21.6 10 Sudeste 21 Sudeste 0 -- -- 63
2020-08-11 11:00:00 21.5 7 Sur 16 Sur 0 -- -- 65
2020-08-11 10:00:00 22.9 9 Sur 21 Oeste 0 -- -- 46
2020-08-11 09:00:00 23.1 5 Sudeste 17 Noroeste 0 -- -- 35
2020-08-11 08:00:00 19.8 10 Noroeste 27 Noroeste 0 -- -- 37
2020-08-11 07:00:00 19 14 Norte 33 Norte 0 -- -- 50
2020-08-11 06:00:00 20.7 11 Norte 25 Norte 0 -- -- 32
2020-08-11 05:00:00 19.6 8 Norte 19 Norte 0 -- -- 30
2020-08-11 04:00:00 19.4 8 Norte 29 Norte 0 -- -- 36
2020-08-11 03:00:00 20.2 10 Norte 35 Norte 0 -- -- 39
2020-08-11 02:00:00 21.1 7 Nordeste 24 Norte 0 -- -- 29
2020-08-11 01:00:00 20.6 7 Nordeste 36 Norte 0 -- -- 28
2020-08-11 00:00:00 19.4 14 Noroeste 33 Noroeste 0 -- -- 32
2020-08-10 23:00:00 20.9 6 Norte 25 Noroeste 0 -- -- 23
2020-08-10 22:00:00 21.3 6 Nordeste 28 Norte 0 -- -- 22
2020-08-10 21:00:00 20 8 Norte 24 Norte 0 -- -- 37
2020-08-10 20:00:00 21.7 7 Norte 23 Noroeste 0 -- -- 50
2020-08-10 19:00:00 23.5 5 Sur 20 Norte 0 -- -- 56
2020-08-10 18:00:00 23.4 6 Noroeste 21 Noroeste 0 -- -- 57
2020-08-10 17:00:00 22.4 7 Este 22 Oeste 0 -- -- 58
2020-08-10 16:00:00 23.3 10 Este 26 Norte 0 -- -- 56
2020-08-10 15:00:00 25.3 8 Sur 20 Sur 0 -- -- 54
2020-08-10 14:00:00 25.3 9 Sur 26 Noroeste 0 -- -- 56
2020-08-10 13:00:00 24.5 12 Noroeste 27 Noroeste 0 -- -- 52
2020-08-10 12:00:00 21.8 10 Este 25 Sudeste 0 -- -- 69
2020-08-10 11:00:00 23.1 13 Sudeste 27 Norte 0 -- -- 56
2020-08-10 10:00:00 22.4 12 Norte 30 Noroeste 0 -- -- 54
2020-08-10 09:00:00 20.1 14 Norte 35 Norte 0 -- -- 70
2020-08-10 08:00:00 20.4 10 Norte 24 Norte 0 -- -- 48
2020-08-10 07:00:00 19 4 Nordeste 18 Norte 0 -- -- 49
2020-08-10 06:00:00 18.6 6 Norte 32 Norte 0 -- -- 56
2020-08-10 05:00:00 19.1 16 Norte 31 Norte 0 -- -- 58
2020-08-10 04:00:00 20.9 10 Norte 30 Noroeste 0 -- -- 33
2020-08-10 03:00:00 19.5 14 Norte 31 Noroeste 0 -- -- 33
2020-08-10 02:00:00 20 14 Norte 33 Norte 0 -- -- 42
2020-08-10 01:00:00 21.1 12 Norte 30 Norte 0 -- -- 43
2020-08-10 00:00:00 21.1 8 Norte 22 Norte 0 -- -- 42
2020-08-09 23:00:00 20.2 12 Norte 42 Norte 0 -- -- 51
2020-08-09 22:00:00 20.6 16 Norte 36 Norte 0 -- -- 48
2020-08-09 21:00:00 21.9 13 Norte 27 Norte 0 -- -- 47
2020-08-09 20:00:00 23.7 8 Nordeste 27 Norte 0 -- -- 44
2020-08-09 19:00:00 24.8 9 Norte 31 Norte 0 -- -- 47
2020-08-09 18:00:00 26.3 9 Norte 23 Norte 0 -- -- 43
2020-08-09 17:00:00 27.6 8 Noroeste 22 Noroeste 0 -- -- 40
2020-08-09 16:00:00 26.7 12 Este 28 Sudeste 0 -- -- 44
2020-08-09 15:00:00 27.5 9 Norte 32 Este 0 -- -- 41
2020-08-09 14:00:00 27.4 12 Este 26 Norte 0 -- -- 36
2020-08-09 13:00:00 28 8 Norte 21 Norte 0 -- -- 34
2020-08-09 12:00:00 27.4 9 Norte 23 Norte 0 -- -- 36
2020-08-09 11:00:00 26.3 9 Norte 27 Norte 0 -- -- 37
2020-08-09 10:00:00 24.7 12 Norte 34 Norte 0 -- -- 39
2020-08-09 09:00:00 22.8 12 Norte 28 Norte 0 -- -- 43
2020-08-09 08:00:00 19.8 6 Norte 33 Norte 0 -- -- 56
2020-08-09 07:00:00 20 12 Norte 32 Noroeste 0 -- -- 57
2020-08-09 06:00:00 20.7 12 Norte 33 Noroeste 0 -- -- 45
2020-08-09 05:00:00 20.3 12 Norte 31 Norte 0 -- -- 43
2020-08-09 04:00:00 19.5 10 Norte 37 Norte 0 -- -- 46
2020-08-09 03:00:00 19.4 17 Norte 36 Norte 0 -- -- 51
2020-08-09 02:00:00 19.7 7 Nordeste 31 Norte 0 -- -- 46
2020-08-09 01:00:00 19.7 11 Norte 33 Nordeste 0 -- -- 58
2020-08-09 00:00:00 19.7 13 Norte 45 Nordeste 0 -- -- 50
2020-08-08 23:00:00 20.5 13 Norte 32 Norte 0 -- -- 43
2020-08-08 22:00:00 20.3 12 Norte 37 Noroeste 0 -- -- 42
2020-08-08 21:00:00 20.2 13 Noroeste 39 Norte 0 -- -- 46
2020-08-08 20:00:00 21.9 16 Norte 36 Norte 0 -- -- 31
2020-08-08 19:00:00 24.9 9 Norte 28 Noroeste 0 -- -- 31
2020-08-08 18:00:00 26.1 7 Norte 20 Norte 0 -- -- 31
2020-08-08 17:00:00 23.4 10 Sudeste 21 Este 0 -- -- 61
2020-08-08 16:00:00 21.6 13 Sudeste 25 Este 0 -- -- 68
2020-08-08 15:00:00 24.6 12 Sudeste 22 Sudeste 0 -- -- 54
2020-08-08 14:00:00 26.3 12 Sudeste 21 Este 0 -- -- 35
2020-08-08 13:00:00 26.3 13 Sudeste 22 Sudeste 0 -- -- 46
2020-08-08 12:00:00 25.6 9 Sur 15 Sur 0 -- -- 41
2020-08-08 11:00:00 27.3 8 Norte 24 Norte 0 -- -- 26
2020-08-08 10:00:00 26 5 Sudeste 10 Sudeste 0 -- -- 23
2020-08-08 09:00:00 22.5 3 Sur 10 Norte 0 -- -- 30
2020-08-08 08:00:00 19.6 6 Norte 16 Norte 0 -- -- 36
2020-08-08 07:00:00 19.5 8 Norte 17 Norte 0 -- -- 36
2020-08-08 06:00:00 18.8 5 Norte 15 Noroeste 0 -- -- 36
2020-08-08 05:00:00 18.1 4 Norte 13 Norte 0 -- -- 38
2020-08-08 04:00:00 18.5 2 Nordeste 15 Norte 0 -- -- 34
2020-08-08 03:00:00 19.4 4 Norte 31 Norte 0 -- -- 32
2020-08-08 02:00:00 18.8 12 Norte 30 Norte 0 -- -- 42
2020-08-08 01:00:00 20.5 6 Norte 18 Noroeste 0 -- -- 42
2020-08-08 00:00:00 20.9 9 Norte 22 Norte 0 -- -- 35
2020-08-07 23:00:00 21.1 4 Nordeste 17 Norte 0 -- -- 38
2020-08-07 22:00:00 18.4 4 Este 14 Nordeste 0 -- -- 49
2020-08-07 21:00:00 17.6 2 Sudeste 6 Sudeste 0 -- -- 85
2020-08-07 20:00:00 18.6 4 Sur 13 Sudeste 0 -- -- 81
2020-08-07 19:00:00 21.8 7 Sur 19 Sur 0 -- -- 67
2020-08-07 18:00:00 21.3 6 Sudoeste 14 Sudeste 0 -- -- 70
2020-08-07 17:00:00 19.8 9 Sudeste 18 Sudeste 0 -- -- 75
2020-08-07 16:00:00 19.3 8 Este 21 Este 0 -- -- 75
2020-08-07 15:00:00 20 10 Este 22 Este 0 -- -- 74
2020-08-07 14:00:00 22.6 10 Sur 18 Sudeste 0 -- -- 64
2020-08-07 13:00:00 21.3 10 Sudeste 18 Sudeste 0 -- -- 68
2020-08-07 12:00:00 20.1 10 Sudeste 17 Sudeste 0 -- -- 73
2020-08-07 11:00:00 18.7 8 Sudeste 14 Sudeste 0 -- -- 79
2020-08-07 10:00:00 17.7 8 Sudeste 13 Sudeste 0 -- -- 82
2020-08-07 09:00:00 16 4 Este 20 Este 0 -- -- 88
2020-08-07 08:00:00 15 4 Este 11 Este 0 -- -- 89
2020-08-07 07:00:00 16.1 0 Calma 9 Noroeste 0 -- -- 70
2020-08-07 06:00:00 15.2 3 Sudoeste 10 Noroeste 0 -- -- 69
2020-08-07 05:00:00 14.7 2 Nordeste 5 Este 0 -- -- 58
2020-08-07 04:00:00 16.1 3 Este 9 Oeste 0 -- -- 58
2020-08-07 03:00:00 16.6 2 Norte 9 Noroeste 0 -- -- 49
2020-08-07 02:00:00 16.2 4 Sur 13 Noroeste 0 -- -- 53
2020-08-07 01:00:00 15.5 5 Norte 9 Noroeste 0 -- -- 73
2020-08-07 00:00:00 15.8 5 Oeste 13 Oeste 0 -- -- 91
2020-08-06 23:00:00 16 4 Noroeste 6 Noroeste 0 -- -- 82
2020-08-06 22:00:00 16.9 4 Sur 9 Sur 0 -- -- 94
2020-08-06 21:00:00 17.3 4 Sudeste 10 Sudeste 0 -- -- 93
2020-08-06 20:00:00 18 4 Este 11 Este 0 -- -- 87
2020-08-06 19:00:00 20.1 6 Sudeste 20 Sudeste 0 -- -- 75
2020-08-06 18:00:00 22.5 11 Sur 19 Sur 0 -- -- 66
2020-08-06 17:00:00 20.5 7 Sudeste 15 Sudeste 0 -- -- 74
2020-08-06 16:00:00 20.2 9 Sudeste 18 Sudeste 0 -- -- 74
2020-08-06 15:00:00 20.8 11 Sudeste 16 Sudeste 0 -- -- 70
2020-08-06 14:00:00 21.2 9 Sudeste 17 Este 0 -- -- 69
2020-08-06 13:00:00 21.5 9 Sur 16 Sur 0 -- -- 68
2020-08-06 12:00:00 21 8 Sudeste 14 Sudeste 0 -- -- 70
2020-08-06 11:00:00 22 8 Sudeste 14 Sudeste 0 -- -- 65
2020-08-06 10:00:00 20 6 Sur 11 Sur 0 -- -- 73
2020-08-06 09:00:00 18.5 4 Sudoeste 8 Sudeste 0 -- -- 72
2020-08-06 08:00:00 15 6 Norte 9 Noroeste 0 -- -- 56
2020-08-06 07:00:00 15.8 0 Calma 6 Noroeste 0 -- -- 81
2020-08-06 06:00:00 17 5 Norte 8 Norte 0 -- -- 44
2020-08-06 05:00:00 18.4 6 Norte 9 Norte 0 -- -- 42
2020-08-06 04:00:00 18.8 4 Noroeste 8 Noroeste 0 -- -- 41
2020-08-06 03:00:00 19.8 4 Norte 17 Noroeste 0 -- -- 38
2020-08-06 02:00:00 20.6 6 Norte 16 Norte 0 -- -- 37
2020-08-06 01:00:00 20.6 6 Norte 13 Norte 0 -- -- 37
2020-08-06 00:00:00 20.1 2 Este 6 Sur 0 -- -- 37
2020-08-05 23:00:00 21.1 3 Nordeste 14 Noroeste 0 -- -- 36
2020-08-05 22:00:00 22.5 6 Norte 21 Nordeste 0 -- -- 34
2020-08-05 21:00:00 23.6 4 Oeste 13 Norte 0 -- -- 34
2020-08-05 20:00:00 25.4 5 Norte 17 Norte 0 -- -- 29
2020-08-05 19:00:00 26.2 9 Este 24 Nordeste 0 -- -- 32
2020-08-05 18:00:00 25.5 8 Este 17 Este 0 -- -- 43
2020-08-05 17:00:00 25 8 Sudeste 19 Sudeste 0 -- -- 35
2020-08-05 16:00:00 24.4 11 Este 21 Este 0 -- -- 44
2020-08-05 15:00:00 24.4 10 Sudeste 23 Sudeste 0 -- -- 53
2020-08-05 14:00:00 22.8 10 Sudeste 18 Este 0 -- -- 62
2020-08-05 13:00:00 24.9 10 Sudeste 23 Este 0 -- -- 51
2020-08-05 12:00:00 25.5 9 Este 20 Sudeste 0 -- -- 38
2020-08-05 11:00:00 25.8 9 Este 26 Nordeste 0 -- -- 30
2020-08-05 10:00:00 24.2 9 Este 27 Nordeste 0 -- -- 38
2020-08-05 09:00:00 23.7 9 Este 23 Este 0 -- -- 40
2020-08-05 08:00:00 22.8 8 Nordeste 22 Norte 0 -- -- 33
2020-08-05 07:00:00 22.5 9 Norte 30 Norte 0 -- -- 30
2020-08-05 06:00:00 22.3 13 Norte 32 Norte 0 -- -- 26
2020-08-05 05:00:00 22.5 11 Norte 31 Norte 0 -- -- 24
2020-08-05 04:00:00 22.5 11 Norte 30 Norte 0 -- -- 29
2020-08-05 03:00:00 22.5 11 Norte 35 Nordeste 0 -- -- 33
2020-08-05 02:00:00 20.8 12 Norte 29 Norte 0 -- -- 41
2020-08-05 01:00:00 21.6 10 Norte 25 Norte 0 -- -- 39
2020-08-05 00:00:00 21.7 7 Norte 24 Norte 0 -- -- 24
2020-08-04 23:00:00 21.7 9 Norte 28 Norte 0 -- -- 29
2020-08-04 22:00:00 22.3 10 Norte 31 Norte 0 -- -- 33
2020-08-04 21:00:00 22.8 3 Este 11 Este 0 -- -- 29
2020-08-04 20:00:00 25.1 2 Sur 17 Nordeste 0 -- -- 40
2020-08-04 19:00:00 27.4 6 Nordeste 18 Norte 0 -- -- 24
2020-08-04 18:00:00 26.5 11 Sudeste 19 Sur 0 -- -- 35
2020-08-04 17:00:00 26.8 11 Sur 26 Sudeste 0 -- -- 40
2020-08-04 16:00:00 26.8 10 Sudeste 20 Sudeste 0 -- -- 39
2020-08-04 15:00:00 25.8 8 Sur 16 Sur 0 -- -- 48
2020-08-04 14:00:00 26.7 9 Sur 17 Sudeste 0 -- -- 41
2020-08-04 13:00:00 26.7 10 Sudeste 23 Este 0 -- -- 29
2020-08-04 12:00:00 24.5 8 Sur 14 Sur 0 -- -- 52
2020-08-04 11:00:00 25.1 8 Sur 14 Sur 0 -- -- 47
2020-08-04 10:00:00 26.8 10 Este 30 Nordeste 0 -- -- 18
2020-08-04 09:00:00 24.5 4 Este 15 Este 0 -- -- 8
2020-08-04 08:00:00 19.2 4 Norte 17 Este 0 -- -- 14
2020-08-04 07:00:00 21.2 8 Este 21 Sudeste 0 -- -- 12
2020-08-04 06:00:00 20.1 4 Este 9 Este 0 -- -- 15
2020-08-04 05:00:00 22.6 5 Nordeste 26 Norte 0 -- -- 17
2020-08-04 04:00:00 23 9 Norte 34 Norte 0 -- -- 18
2020-08-04 03:00:00 23.8 15 Norte 42 Norte 0 -- -- 16
2020-08-04 02:00:00 23.8 14 Norte 39 Norte 0 -- -- 11
2020-08-04 01:00:00 24 12 Norte 41 Norte 0 -- -- 11
2020-08-04 00:00:00 25.4 15 Noroeste 35 Norte 0 -- -- 9
2020-08-03 23:00:00 26.1 13 Noroeste 34 Norte 0 -- -- 8
2020-08-03 22:00:00 25.9 15 Norte 37 Noroeste 0 -- -- 11
2020-08-03 21:00:00 26.6 13 Norte 35 Norte 0 -- -- 11
2020-08-03 20:00:00 30.2 12 Norte 33 Noroeste 0 -- -- 7
2020-08-03 19:00:00 32.5 11 Norte 37 Norte 0 -- -- 9
2020-08-03 18:00:00 33.4 13 Norte 37 Norte 0 -- -- 10
2020-08-03 17:00:00 34.8 10 Nordeste 34 Norte 0 -- -- 9
2020-08-03 16:00:00 34.2 12 Nordeste 28 Norte 0 -- -- 9
2020-08-03 15:00:00 33.7 11 Este 33 Nordeste 0 -- -- 11
2020-08-03 14:00:00 33.6 13 Nordeste 34 Nordeste 0 -- -- 9
2020-08-03 13:00:00 33.9 10 Nordeste 30 Nordeste 0 -- -- 10
2020-08-03 12:00:00 31.8 13 Nordeste 34 Norte 0 -- -- 11
2020-08-03 11:00:00 30.8 12 Nordeste 40 Norte 0 -- -- 17
2020-08-03 10:00:00 30.4 14 Nordeste 53 Nordeste 0 -- -- 10
2020-08-03 09:00:00 28.1 15 Norte 37 Nordeste 0 -- -- 9
2020-08-03 08:00:00 25 13 Norte 48 Norte 0 -- -- 16
2020-08-03 07:00:00 25.2 12 Norte 35 Norte 0 -- -- 15
2020-08-03 06:00:00 25.6 11 Norte 34 Norte 0 -- -- 17
2020-08-03 05:00:00 24.9 12 Norte 34 Norte 0 -- -- 20
2020-08-03 04:00:00 25.5 12 Norte 35 Este 0 -- -- 18
2020-08-03 03:00:00 26.6 13 Norte 35 Norte 0 -- -- 24
2020-08-03 02:00:00 25.7 13 Norte 34 Nordeste 0 -- -- 19
2020-08-03 01:00:00 25.6 13 Norte 32 Norte 0 -- -- 16
2020-08-03 00:00:00 27.1 13 Norte 37 Norte 0 -- -- 27
2020-08-02 23:00:00 26.3 11 Norte 31 Norte 0 -- -- 25
2020-08-02 22:00:00 25.8 10 Norte 24 Norte 0 -- -- 25
2020-08-02 21:00:00 26.5 9 Norte 24 Nordeste 0 -- -- 20
2020-08-02 20:00:00 28.1 9 Norte 32 Noroeste 0 -- -- 14
2020-08-02 19:00:00 30.3 11 Norte 25 Norte 0 -- -- 10
2020-08-02 18:00:00 31.4 6 Sudeste 26 Nordeste 0 -- -- 18
2020-08-02 17:00:00 30.2 7 Sur 21 Este 0 -- -- 28
2020-08-02 16:00:00 32.1 11 Sudeste 25 Este 0 -- -- 32
2020-08-02 15:00:00 32.3 11 Este 21 Sudeste 0 -- -- 21
2020-08-02 14:00:00 31.1 8 Sudeste 19 Sudeste 0 -- -- 29
2020-08-02 13:00:00 31.1 10 Sudeste 18 Sur 0 -- -- 22
2020-08-02 12:00:00 30.7 10 Sudeste 20 Este 0 -- -- 17
2020-08-02 11:00:00 30.4 10 Sudeste 18 Este 0 -- -- 21
2020-08-02 10:00:00 30 5 Este 15 Este 0 -- -- 25
2020-08-02 09:00:00 27.6 8 Este 17 Este 0 -- -- 28
2020-08-02 08:00:00 25.1 6 Norte 18 Norte 0 -- -- 24
2020-08-02 07:00:00 23.9 4 Nordeste 12 Norte 0 -- -- 27
2020-08-02 06:00:00 23.6 4 Nordeste 12 Este 0 -- -- 30
2020-08-02 05:00:00 25 5 Este 13 Sudeste 0 -- -- 29
2020-08-02 04:00:00 24.1 5 Nordeste 14 Norte 0 -- -- 31
2020-08-02 03:00:00 25.5 7 Norte 21 Norte 0 -- -- 37
2020-08-02 02:00:00 25.4 9 Norte 25 Noroeste 0 -- -- 36
2020-08-02 01:00:00 24.9 8 Norte 23 Noroeste 0 -- -- 35
2020-08-02 00:00:00 24.3 2 Sudeste 9 Norte 0 -- -- 40
2020-08-01 23:00:00 25.7 5 Sudeste 22 Noroeste 0 -- -- 40
2020-08-01 22:00:00 26.1 9 Noroeste 22 Noroeste 0 -- -- 41
2020-08-01 21:00:00 26.6 4 Noroeste 15 Noroeste 0 -- -- 45
2020-08-01 20:00:00 27.6 5 Nordeste 13 Noroeste 0 -- -- 40
2020-08-01 19:00:00 28.7 8 Sudeste 13 Sudeste 0 -- -- 40
2020-08-01 18:00:00 29.5 9 Este 17 Sudeste 0 -- -- 39
2020-08-01 17:00:00 30.2 10 Sur 17 Sudeste 0 -- -- 38
2020-08-01 16:00:00 29.4 10 Sur 16 Sudeste 0 -- -- 42
2020-08-01 15:00:00 27.5 7 Sur 15 Sur 0 -- -- 47
2020-08-01 14:00:00 27 6 Sur 16 Sudeste 0 -- -- 52
2020-08-01 13:00:00 27 9 Sur 19 Sur 0 -- -- 52
2020-08-01 12:00:00 26.4 10 Sur 16 Sur 0 -- -- 56
2020-08-01 11:00:00 26.5 6 Sur 11 Sudeste 0 -- -- 48
2020-08-01 10:00:00 27.5 4 Sur 10 Sur 0 -- -- 45
2020-08-01 09:00:00 24.7 2 Sudeste 7 Norte 0 -- -- 49
2020-08-01 08:00:00 22.4 5 Norte 8 Norte 0 -- -- 56
2020-08-01 07:00:00 21.7 4 Norte 8 Norte 0 -- -- 59
2020-08-01 06:00:00 21.5 2 Norte 5 Noroeste 0 -- -- 58
2020-08-01 05:00:00 21.8 2 Noroeste 7 Oeste 0 -- -- 58
2020-08-01 04:00:00 21.5 4 Norte 8 Norte 0 -- -- 59
2020-08-01 03:00:00 22 3 Norte 6 Noroeste 0 -- -- 58
2020-08-01 02:00:00 22.2 3 Noroeste 8 Oeste 0 -- -- 59
2020-08-01 01:00:00 21.6 4 Noroeste 8 Noroeste 0 -- -- 60
2020-08-01 00:00:00 21 4 Norte 7 Sur 0 -- -- 61
2020-07-31 23:00:00 21.5 3 Noroeste 13 Sur 0 -- -- 61
2020-07-31 22:00:00 21.6 3 Oeste 8 Sur 0 -- -- 58
2020-07-31 21:00:00 22.5 3 Norte 21 Sur 0 -- -- 54
2020-07-31 20:00:00 25 6 Sudoeste 18 Oeste 0 -- -- 49
2020-07-31 19:00:00 22.6 5 Sur 13 Sudeste 0 -- -- 57
2020-07-31 18:00:00 22.6 7 Sudeste 13 Sudeste 0 -- -- 59
2020-07-31 17:00:00 24.2 9 Sudeste 17 Sur 0 -- -- 59
2020-07-31 16:00:00 25.4 9 Sur 18 Sur 0 -- -- 54
2020-07-31 15:00:00 23 8 Sur 18 Sur 0 -- -- 62
2020-07-31 14:00:00 22 6 Sur 18 Sudeste 0 -- -- 47
2020-07-31 13:00:00 19.5 10 Sudeste 19 Sudeste 0 -- -- 74
2020-07-31 12:00:00 20.4 9 Sudeste 20 Este 0 -- -- 70
2020-07-31 11:00:00 21.5 8 Este 15 Nordeste 0 -- -- 50
2020-07-31 10:00:00 20.8 5 Sudeste 15 Sudeste 0 -- -- 64
2020-07-31 09:00:00 19.5 6 Este 13 Noroeste 0 -- -- 42
2020-07-31 08:00:00 14.7 6 Noroeste 13 Noroeste 0 -- -- 29
2020-07-31 07:00:00 13.6 4 Noroeste 10 Sudoeste 0 -- -- 84
2020-07-31 06:00:00 14.7 3 Sudoeste 8 Sur 0 -- -- 91
2020-07-31 05:00:00 15 0 Calma 8 Sudeste 0 -- -- 85
2020-07-31 04:00:00 16.6 3 Sudeste 11 Norte 0 -- -- 74
2020-07-31 03:00:00 18.1 6 Norte 14 Este 0 -- -- 15
2020-07-31 02:00:00 18.3 7 Norte 13 Norte 0 -- -- 15
2020-07-31 01:00:00 16.2 2 Norte 8 Norte 0 -- -- 20
2020-07-31 00:00:00 16.1 6 Norte 10 Noroeste 0 -- -- 22
2020-07-30 23:00:00 15.4 3 Oeste 9 Oeste 0 -- -- 89
2020-07-30 22:00:00 15.9 3 Sudeste 10 Sudeste 0 -- -- 88
2020-07-30 21:00:00 18 3 Sur 13 Sudeste 0 -- -- 76
2020-07-30 20:00:00 22.9 4 Oeste 14 Sudeste 0 -- -- 53
2020-07-30 19:00:00 24.7 4 Sudeste 15 Sudeste 0 -- -- 42
2020-07-30 18:00:00 24.9 5 Sudeste 15 Sur 0 -- -- 50
2020-07-30 17:00:00 26.6 8 Sur 17 Sudeste 0 -- -- 28
2020-07-30 16:00:00 28 8 Este 19 Este 0 -- -- 12
2020-07-30 15:00:00 28.1 8 Este 17 Sudeste 0 -- -- 8
2020-07-30 14:00:00 20.2 11 Este 24 Sudeste 0 -- -- 69
2020-07-30 13:00:00 20.6 10 Sudeste 19 Sudeste 0 -- -- 70
2020-07-30 12:00:00 21 7 Sur 15 Sur 0 -- -- 65
2020-07-30 11:00:00 20.8 10 Sudeste 21 Sudeste 0 -- -- 67
2020-07-30 10:00:00 19.2 5 Sudeste 13 Sudeste 0 -- -- 68
2020-07-30 09:00:00 16.9 4 Sudeste 12 Este 0 -- -- 82
2020-07-30 08:00:00 15.9 4 Nordeste 13 Nordeste 0 -- -- 58
2020-07-30 07:00:00 17.3 5 Norte 27 Norte 0 -- -- 25
2020-07-30 06:00:00 18.6 10 Norte 21 Noroeste 0 -- -- 28
2020-07-30 05:00:00 16.6 5 Norte 9 Norte 0 -- -- 23
2020-07-30 04:00:00 16.8 5 Norte 8 Noroeste 0 -- -- 26
2020-07-30 03:00:00 18.4 4 Noroeste 31 Norte 0 -- -- 43
2020-07-30 02:00:00 22 13 Norte 32 Norte 0 -- -- 25
2020-07-30 01:00:00 22.3 12 Norte 26 Norte 0 -- -- 23
2020-07-30 00:00:00 21.5 11 Norte 36 Norte 0 -- -- 23
2020-07-29 23:00:00 20.4 12 Norte 31 Norte 0 -- -- 28
2020-07-29 22:00:00 21.9 8 Noroeste 29 Norte 0 -- -- 15
2020-07-29 21:00:00 21.1 14 Noroeste 26 Noroeste 0 -- -- 25
2020-07-29 20:00:00 22 10 Norte 28 Noroeste 0 -- -- 36
2020-07-29 19:00:00 25.3 10 Sudeste 18 Sudeste 0 -- -- 27
2020-07-29 18:00:00 25.8 8 Sudeste 16 Sudeste 0 -- -- 31
2020-07-29 17:00:00 26.4 8 Oeste 24 Este 0 -- -- 32
2020-07-29 16:00:00 26.3 10 Noroeste 23 Noroeste 0 -- -- 34
2020-07-29 15:00:00 24.1 12 Sudeste 22 Sudeste 0 -- -- 42
2020-07-29 14:00:00 25.3 9 Sudeste 20 Sudeste 0 -- -- 45
2020-07-29 13:00:00 25 8 Sudeste 17 Sur 0 -- -- 47
2020-07-29 12:00:00 29.2 7 Sur 17 Sur 0 -- -- 36
2020-07-29 11:00:00 30.7 8 Sudeste 19 Noroeste 0 -- -- 31
2020-07-29 10:00:00 29.8 12 Norte 29 Noroeste 0 -- -- 9
2020-07-29 09:00:00 28.9 12 Noroeste 26 Noroeste 0 -- -- 8
2020-07-29 08:00:00 26.1 10 Noroeste 25 Noroeste 0 -- -- 10
2020-07-29 07:00:00 25 15 Noroeste 34 Norte 0 -- -- 14
2020-07-29 06:00:00 25.8 15 Noroeste 31 Noroeste 0 -- -- 12
2020-07-29 05:00:00 26.1 12 Norte 38 Norte 0 -- -- 11
2020-07-29 04:00:00 25.7 14 Norte 41 Norte 0 -- -- 8
2020-07-29 03:00:00 25.8 15 Norte 36 Norte 0 -- -- 7
2020-07-29 02:00:00 25.8 9 Norte 41 Norte 0 -- -- 4
2020-07-29 01:00:00 25.3 15 Norte 35 Norte 0 -- -- 5
2020-07-29 00:00:00 26.2 12 Norte 31 Norte 0 -- -- 3
2020-07-28 23:00:00 25.9 14 Norte 32 Norte 0 -- -- 3
2020-07-28 22:00:00 25.7 12 Norte 31 Noroeste 0 -- -- 7
2020-07-28 21:00:00 27 6 Norte 21 Noroeste 0 -- -- 8
2020-07-28 20:00:00 28.5 5 Sur 10 Noroeste 0 -- -- 23
2020-07-28 19:00:00 29.5 6 Sudeste 15 Sudeste 0 -- -- 25
2020-07-28 18:00:00 30.8 6 Sur 14 Sur 0 -- -- 18
2020-07-28 17:00:00 30.2 9 Sur 18 Sur 0 -- -- 15
2020-07-28 16:00:00 30.3 8 Sur 20 Sudeste 0 -- -- 19
2020-07-28 15:00:00 30.6 10 Sur 20 Sudeste 0 -- -- 26
2020-07-28 14:00:00 31 12 Sudeste 20 Sudeste 0 -- -- 10
2020-07-28 13:00:00 31.8 11 Sur 17 Sur 0 -- -- 15
2020-07-28 12:00:00 30.7 9 Sur 18 Sur 0 -- -- 10
2020-07-28 11:00:00 30.7 9 Sur 17 Sur 0 -- -- 28
2020-07-28 10:00:00 29.2 6 Sur 17 Oeste 0 -- -- 10
2020-07-28 09:00:00 24.6 5 Oeste 9 Oeste 0 -- -- 16
2020-07-28 08:00:00 21.8 4 Norte 8 Norte 0 -- -- 17
2020-07-28 07:00:00 23.5 4 Norte 22 Noroeste 0 -- -- 16
2020-07-28 06:00:00 25.4 7 Norte 24 Norte 0 -- -- 15
2020-07-28 05:00:00 24.5 8 Norte 16 Norte 0 -- -- 8
2020-07-28 04:00:00 25.5 3 Noroeste 17 Noroeste 0 -- -- 7
2020-07-28 03:00:00 26.7 10 Noroeste 21 Noroeste 0 -- -- 6
2020-07-28 02:00:00 26.4 9 Noroeste 25 Norte 0 -- -- 7
2020-07-28 01:00:00 26.4 12 Noroeste 24 Noroeste 0 -- -- 7
2020-07-28 00:00:00 25.8 12 Norte 22 Noroeste 0 -- -- 8
2020-07-27 23:00:00 25.8 11 Norte 22 Noroeste 0 -- -- 7
2020-07-27 22:00:00 25.3 8 Norte 17 Norte 0 -- -- 9
2020-07-27 21:00:00 27.1 5 Norte 13 Norte 0 -- -- 10
2020-07-27 20:00:00 29.1 3 Sudeste 13 Este 0 -- -- 11
2020-07-27 19:00:00 29.9 7 Este 16 Este 0 -- -- 6
2020-07-27 18:00:00 30.1 6 Este 18 Sudeste 0 -- -- 7
2020-07-27 17:00:00 30.5 12 Este 21 Este 0 -- -- 11
2020-07-27 16:00:00 30.7 13 Este 24 Sudeste 0 -- -- 9
2020-07-27 15:00:00 28.9 10 Sudeste 16 Sudeste 0 -- -- 19
2020-07-27 14:00:00 26.6 6 Sur 16 Sudeste 0 -- -- 42
2020-07-27 13:00:00 26.7 5 Sudeste 18 Sudeste 0 -- -- 24
2020-07-27 12:00:00 27.5 8 Este 17 Este 0 -- -- 18
2020-07-27 11:00:00 26.2 9 Este 27 Este 0 -- -- 25
2020-07-27 08:00:00 -- -- -- -- -- -- -- -- --
2020-07-27 07:00:00 22.2 14 Norte 29 Norte 0 -- -- 24
2020-07-27 06:00:00 21.8 9 Norte 26 Noroeste 0 -- -- 24
2020-07-27 05:00:00 22.5 12 Norte 28 Norte 0 -- -- 24
2020-07-27 04:00:00 22.8 11 Norte 25 Norte 0 -- -- 23
2020-07-27 03:00:00 22.5 10 Norte 23 Norte 0 -- -- 24
2020-07-27 02:00:00 22.2 10 Norte 33 Norte 0 -- -- 24
2020-07-27 01:00:00 22 12 Norte 36 Nordeste 0 -- -- 25
2020-07-27 00:00:00 22.2 19 Norte 39 Noroeste 0 -- -- 27
2020-07-26 23:00:00 22.4 15 Norte 32 Noroeste 0 -- -- 26
2020-07-26 22:00:00 22.4 10 Norte 29 Norte 0 -- -- 26
2020-07-26 21:00:00 23.2 10 Norte 32 Nordeste 0 -- -- 28
2020-07-26 20:00:00 24.4 13 Nordeste 33 Este 0 -- -- 27
2020-07-26 19:00:00 27.3 11 Nordeste 31 Nordeste 0 -- -- 23
2020-07-26 18:00:00 28.1 10 Nordeste 38 Nordeste 0 -- -- 21
2020-07-26 17:00:00 28.6 13 Nordeste 32 Este 0 -- -- 21
2020-07-26 16:00:00 29.9 14 Nordeste 36 Este 0 -- -- 20
2020-07-26 15:00:00 29.9 12 Nordeste 30 Nordeste 0 -- -- 22
2020-07-26 14:00:00 29.5 13 Este 37 Nordeste 0 -- -- 23
2020-07-26 13:00:00 29.6 13 Nordeste 30 Este 0 -- -- 21
2020-07-26 12:00:00 29 12 Este 33 Nordeste 0 -- -- 24
2020-07-26 11:00:00 28.3 10 Nordeste 29 Nordeste 0 -- -- 22
2020-07-26 10:00:00 26.4 10 Nordeste 31 Nordeste 0 -- -- 24
2020-07-26 09:00:00 24.3 10 Nordeste 35 Nordeste 0 -- -- 28
2020-07-26 08:00:00 22.5 8 Este 23 Nordeste 0 -- -- 25
2020-07-26 07:00:00 22.4 5 Este 21 Noroeste 0 -- -- 22
2020-07-26 06:00:00 22.1 6 Norte 26 Noroeste 0 -- -- 17
2020-07-26 05:00:00 21.7 9 Norte 29 Norte 0 -- -- 16
2020-07-26 04:00:00 21.9 9 Norte 23 Nordeste 0 -- -- 15
2020-07-26 03:00:00 22.5 9 Nordeste 26 Nordeste 0 -- -- 14
2020-07-26 02:00:00 22.2 7 Nordeste 24 Norte 0 -- -- 16
2020-07-26 01:00:00 22.3 10 Norte 26 Norte 0 -- -- 17
2020-07-26 00:00:00 23.1 11 Norte 32 Norte 0 -- -- 16
2020-07-25 23:00:00 23.3 10 Norte 31 Norte 0 -- -- 14
2020-07-25 22:00:00 22.1 13 Norte 30 Noroeste 0 -- -- 18
2020-07-25 21:00:00 23.5 9 Norte 26 Este 0 -- -- 13
2020-07-25 20:00:00 25 10 Norte 30 Nordeste 0 -- -- 12
2020-07-25 19:00:00 27.8 12 Norte 28 Norte 0 -- -- 12
2020-07-25 18:00:00 28.4 9 Nordeste 34 Norte 0 -- -- 12
2020-07-25 17:00:00 30.2 13 Nordeste 35 Norte 0 -- -- 9
2020-07-25 16:00:00 30.3 10 Nordeste 37 Sudeste 0 -- -- 8
2020-07-25 15:00:00 31.4 10 Norte 34 Norte 0 -- -- 10
2020-07-25 14:00:00 31.7 12 Norte 34 Norte 0 -- -- 7
2020-07-25 13:00:00 30.2 12 Nordeste 28 Este 0 -- -- 12
2020-07-25 12:00:00 30.9 9 Nordeste 32 Nordeste 0 -- -- 10
2020-07-25 11:00:00 28.3 12 Este 28 Norte 0 -- -- 13
2020-07-25 10:00:00 28.1 10 Nordeste 27 Norte 0 -- -- 8
2020-07-25 09:00:00 26.4 9 Norte 24 Nordeste 0 -- -- 9
2020-07-25 08:00:00 23.6 8 Nordeste 32 Norte 0 -- -- 11
2020-07-25 07:00:00 23.9 15 Norte 37 Noroeste 0 -- -- 11
2020-07-25 06:00:00 24.1 18 Norte 38 Norte 0 -- -- 11
2020-07-25 05:00:00 24 10 Norte 24 Norte 0 -- -- 10
2020-07-25 04:00:00 24 11 Norte 31 Norte 0 -- -- 11
2020-07-25 03:00:00 24.8 10 Norte 27 Norte 0 -- -- 8
2020-07-25 02:00:00 24.9 7 Norte 26 Norte 0 -- -- 8
2020-07-25 01:00:00 24.7 8 Norte 27 Norte 0 -- -- 9
2020-07-25 00:00:00 24.3 10 Norte 38 Nordeste 0 -- -- 7
2020-07-24 23:00:00 25 11 Norte 26 Norte 0 -- -- 7
2020-07-24 22:00:00 25.1 8 Norte 24 Norte 0 -- -- 7
2020-07-24 21:00:00 25.3 12 Norte 24 Noroeste 0 -- -- 7
2020-07-24 20:00:00 27.9 10 Norte 29 Norte 0 -- -- 9
2020-07-24 19:00:00 31.2 9 Nordeste 24 Norte 0 -- -- 7
2020-07-24 18:00:00 32 9 Nordeste 27 Norte 0 -- -- 8
2020-07-24 17:00:00 32.1 10 Nordeste 28 Nordeste 0 -- -- 9
2020-07-24 16:00:00 32.1 12 Nordeste 32 Este 0 -- -- 9
2020-07-24 15:00:00 32.1 10 Este 29 Nordeste 0 -- -- 11
2020-07-24 14:00:00 31.6 14 Nordeste 29 Nordeste 0 -- -- 11
2020-07-24 13:00:00 30.8 13 Este 26 Nordeste 0 -- -- 13
2020-07-24 12:00:00 30.6 10 Este 27 Nordeste 0 -- -- 14
2020-07-24 11:00:00 29.1 10 Este 22 Este 0 -- -- 17
2020-07-24 10:00:00 29 9 Nordeste 32 Norte 0 -- -- 10
2020-07-24 09:00:00 26.9 14 Norte 32 Norte 0 -- -- 12
2020-07-24 08:00:00 23.8 11 Norte 31 Norte 0 -- -- 18
2020-07-24 07:00:00 23.3 13 Norte 36 Noroeste 0 -- -- 23
2020-07-24 06:00:00 23.5 15 Norte 31 Norte 0 -- -- 23
2020-07-24 05:00:00 23.5 10 Norte 34 Norte 0 -- -- 21
2020-07-24 04:00:00 23 16 Norte 34 Noroeste 0 -- -- 25
2020-07-24 03:00:00 23.7 12 Norte 29 Norte 0 -- -- 22
2020-07-24 02:00:00 23.5 12 Norte 31 Norte 0 -- -- 22
2020-07-24 01:00:00 23.2 12 Norte 35 Nordeste 0 -- -- 25
2020-07-24 00:00:00 23.7 11 Norte 31 Norte 0 -- -- 23
2020-07-23 23:00:00 23.6 11 Norte 38 Norte 0 -- -- 24
2020-07-23 22:00:00 24.1 10 Nordeste 28 Nordeste 0 -- -- 24
2020-07-23 21:00:00 25.4 11 Este 28 Este 0 -- -- 21
2020-07-23 20:00:00 27.2 5 Sudeste 15 Este 0 -- -- 18
2020-07-23 19:00:00 28.1 9 Este 19 Sudeste 0 -- -- 23
2020-07-23 18:00:00 31 5 Norte 19 Noroeste 0 -- -- 20
2020-07-23 17:00:00 31.3 7 Oeste 31 Este 0 -- -- 16
2020-07-23 16:00:00 32 7 Sudoeste 27 Norte 0 -- -- 20
2020-07-23 15:00:00 32.3 11 Norte 25 Norte 0 -- -- 15
2020-07-23 14:00:00 32 9 Sur 15 Sur 0 -- -- 21
2020-07-23 13:00:00 31.1 9 Sur 18 Sudeste 0 -- -- 23
2020-07-23 12:00:00 31.8 7 Sur 17 Nordeste 0 -- -- 20
2020-07-23 11:00:00 30.6 6 Sudeste 16 Noroeste 0 -- -- 14
2020-07-23 10:00:00 29.5 6 Noroeste 16 Norte 0 -- -- 13
2020-07-23 09:00:00 27.2 8 Norte 22 Norte 0 -- -- 11
2020-07-23 08:00:00 24 8 Norte 22 Norte 0 -- -- 11
2020-07-23 07:00:00 22.7 8 Norte 21 Norte 0 -- -- 12
2020-07-23 06:00:00 21.9 6 Norte 12 Norte 0 -- -- 13
2020-07-23 05:00:00 21.8 5 Norte 8 Norte 0 -- -- 13
2020-07-23 04:00:00 21.4 5 Norte 8 Norte 0 -- -- 13
2020-07-23 03:00:00 21.5 5 Norte 10 Norte 0 -- -- 13
2020-07-23 02:00:00 22 4 Norte 10 Nordeste 0 -- -- 12
2020-07-23 01:00:00 23.3 5 Norte 17 Norte 0 -- -- 10
2020-07-23 00:00:00 23.7 5 Norte 15 Norte 0 -- -- 10
2020-07-22 23:00:00 24.7 7 Norte 19 Noroeste 0 -- -- 9
2020-07-22 22:00:00 24.5 7 Norte 18 Norte 0 -- -- 11
2020-07-22 21:00:00 26 4 Este 15 Noroeste 0 -- -- 14
2020-07-22 20:00:00 28.4 7 Norte 21 Oeste 0 -- -- 12
2020-07-22 19:00:00 29.7 6 Norte 17 Norte 0 -- -- 12
2020-07-22 18:00:00 26.2 4 Sur 13 Sudeste 0 -- -- 52
2020-07-22 17:00:00 26.8 5 Sur 19 Sur 0 -- -- 48
2020-07-22 16:00:00 30 6 Sur 18 Sudeste 0 -- -- 23
2020-07-22 15:00:00 27.6 8 Sur 19 Sur 0 -- -- 47
2020-07-22 14:00:00 21.9 8 Sudeste 17 Sudeste 0 -- -- 67
2020-07-22 13:00:00 23.2 9 Sudeste 17 Sudeste 0 -- -- 59
2020-07-22 12:00:00 23.4 8 Sudeste 15 Sudeste 0 -- -- 58
2020-07-22 11:00:00 29.4 9 Sudeste 15 Sudeste 0 -- -- 21
2020-07-22 10:00:00 27.5 5 Sudeste 12 Sudeste 0 -- -- 34
2020-07-22 09:00:00 24.9 0 Calma 12 Este 0 -- -- 17
2020-07-22 08:00:00 23.3 5 Norte 22 Noroeste 0 -- -- 11
2020-07-22 07:00:00 21.1 7 Norte 14 Norte 0 -- -- 12
2020-07-22 06:00:00 21.8 7 Norte 15 Norte 0 -- -- 12
2020-07-22 05:00:00 23.2 8 Norte 23 Norte 0 -- -- 11
2020-07-22 04:00:00 22.8 9 Norte 19 Norte 0 -- -- 12
2020-07-22 03:00:00 21.9 8 Norte 16 Norte 0 -- -- 13
2020-07-22 02:00:00 21.5 5 Norte 14 Norte 0 -- -- 13
2020-07-22 01:00:00 22.7 6 Norte 19 Norte 0 -- -- 13
2020-07-22 00:00:00 23.2 9 Norte 19 Norte 0 -- -- 15
2020-07-21 23:00:00 21 7 Noroeste 11 Noroeste 0 -- -- 17
2020-07-21 22:00:00 21.2 6 Norte 9 Noroeste 0 -- -- 15
2020-07-21 21:00:00 22.6 5 Norte 6 Norte 0 -- -- 23
2020-07-21 20:00:00 23.6 3 Sudeste 21 Sudeste 0 -- -- 38
2020-07-21 19:00:00 29.7 8 Nordeste 17 Sur 0 -- -- 11
2020-07-21 18:00:00 29.2 6 Este 18 Sudeste 0 -- -- 15
2020-07-21 17:00:00 29.4 9 Sudeste 19 Sudeste 0 -- -- 31
2020-07-21 16:00:00 30.8 11 Sudeste 21 Sudeste 0 -- -- 14
2020-07-21 15:00:00 32 12 Sudeste 22 Este 0 -- -- 11
2020-07-21 14:00:00 31.3 10 Este 23 Este 0 -- -- 8
2020-07-21 13:00:00 28.9 8 Sudeste 22 Nordeste 0 -- -- 13
2020-07-21 12:00:00 28.9 13 Este 26 Este 0 -- -- 17
2020-07-21 11:00:00 24.6 12 Sudeste 21 Sudeste 0 -- -- 31
2020-07-21 10:00:00 23.8 7 Sudeste 19 Este 0 -- -- 50
2020-07-21 09:00:00 26.2 8 Nordeste 26 Norte 0 -- -- 9
2020-07-21 08:00:00 22.2 10 Norte 32 Norte 0 -- -- 16
2020-07-21 07:00:00 18.7 5 Este 15 Este 0 -- -- 47
2020-07-21 06:00:00 20.2 8 Este 29 Norte 0 -- -- 35
2020-07-21 05:00:00 22.7 14 Norte 32 Norte 0 -- -- 18
2020-07-21 04:00:00 23.7 7 Este 37 Noroeste 0 -- -- 15
2020-07-21 03:00:00 22.5 17 Norte 36 Norte 0 -- -- 19
2020-07-21 02:00:00 23.4 10 Nordeste 32 Norte 0 -- -- 18
2020-07-21 01:00:00 23.5 14 Norte 33 Noroeste 0 -- -- 15
2020-07-21 00:00:00 22.8 15 Norte 35 Norte 0 -- -- 22
2020-07-20 23:00:00 23.9 6 Este 21 Este 0 -- -- 17
2020-07-20 22:00:00 25.2 4 Norte 17 Sur 0 -- -- 18
2020-07-20 21:00:00 24.3 9 Sudoeste 35 Noroeste 0 -- -- 24
2020-07-20 20:00:00 26.5 5 Sur 17 Sudeste 0 -- -- 20
2020-07-20 19:00:00 28.7 8 Este 23 Norte 0 -- -- 18
2020-07-20 18:00:00 29 9 Norte 33 Norte 0 -- -- 22
2020-07-20 17:00:00 32.2 10 Noroeste 32 Noroeste 0 -- -- 13
2020-07-20 16:00:00 30.9 10 Este 23 Este 0 -- -- 22
2020-07-20 15:00:00 31.6 9 Sudeste 24 Noroeste 0 -- -- 16
2020-07-20 14:00:00 33 7 Noroeste 18 Sudeste 0 -- -- 17
2020-07-20 13:00:00 33.2 9 Sudeste 21 Sudeste 0 -- -- 21
2020-07-20 12:00:00 31.7 10 Sudeste 24 Sudeste 0 -- -- 18
2020-07-20 11:00:00 30.6 10 Nordeste 24 Noroeste 0 -- -- 20
2020-07-20 10:00:00 29.8 5 Sudeste 15 Sudoeste 0 -- -- 23
2020-07-20 09:00:00 27 6 Sur 22 Noroeste 0 -- -- 27
2020-07-20 08:00:00 25.9 10 Oeste 37 Norte 0 -- -- 30
2020-07-20 07:00:00 25.7 17 Noroeste 37 Norte 0 -- -- 28
2020-07-20 06:00:00 26.2 17 Noroeste 35 Norte 0 -- -- 26
2020-07-20 05:00:00 26.2 14 Noroeste 46 Norte 0 -- -- 28
2020-07-20 04:00:00 26.5 16 Norte 37 Norte 0 -- -- 23
2020-07-20 03:00:00 26.8 11 Norte 31 Norte 0 -- -- 17
2020-07-20 02:00:00 26.7 14 Norte 34 Norte 0 -- -- 17
2020-07-20 01:00:00 26.8 16 Norte 37 Norte 0 -- -- 19
2020-07-20 00:00:00 27 16 Norte 36 Norte 0 -- -- 20
2020-07-19 23:00:00 27 13 Norte 36 Norte 0 -- -- 20
2020-07-19 22:00:00 27.2 14 Norte 37 Norte 0 -- -- 19
2020-07-19 21:00:00 28.3 14 Norte 34 Nordeste 0 -- -- 20
2020-07-19 20:00:00 30.1 12 Norte 25 Nordeste 0 -- -- 17
2020-07-19 19:00:00 32.1 8 Norte 28 Norte 0 -- -- 21
2020-07-19 18:00:00 34 11 Norte 27 Norte 0 -- -- 19
2020-07-19 17:00:00 35 10 Noroeste 21 Noroeste 0 -- -- 17
2020-07-19 16:00:00 34.4 11 Este 21 Este 0 -- -- 16
2020-07-19 15:00:00 35 11 Sur 19 Sur 0 -- -- 19
2020-07-19 14:00:00 34.9 10 Sur 20 Sudeste 0 -- -- 19
2020-07-19 13:00:00 34.8 10 Este 22 Sudeste 0 -- -- 17
2020-07-19 12:00:00 34.5 10 Este 24 Sudeste 0 -- -- 17
2020-07-19 11:00:00 33.7 6 Norte 20 Norte 0 -- -- 14
2020-07-19 10:00:00 31.4 7 Nordeste 19 Nordeste 0 -- -- 16
2020-07-19 09:00:00 29.1 6 Nordeste 19 Norte 0 -- -- 16
2020-07-19 08:00:00 27.5 7 Este 23 Este 0 -- -- 15
2020-07-19 07:00:00 27.3 9 Este 16 Este 0 -- -- 14
2020-07-19 06:00:00 27 6 Nordeste 18 Este 0 -- -- 14
2020-07-19 05:00:00 27.4 7 Norte 25 Noroeste 0 -- -- 14
2020-07-19 04:00:00 27.5 9 Noroeste 23 Noroeste 0 -- -- 12
2020-07-19 03:00:00 27.5 8 Noroeste 19 Noroeste 0 -- -- 11
2020-07-19 02:00:00 27.9 7 Este 21 Nordeste 0 -- -- 8
2020-07-19 01:00:00 28.4 5 Este 20 Noroeste 0 -- -- 10
2020-07-19 00:00:00 28 9 Norte 22 Norte 0 -- -- 15
2020-07-18 23:00:00 28.3 5 Norte 23 Noroeste 0 -- -- 15
2020-07-18 22:00:00 28.3 6 Nordeste 21 Norte 0 -- -- 16
2020-07-18 21:00:00 28.8 6 Norte 22 Norte 0 -- -- 16
2020-07-18 20:00:00 30.6 4 Sudeste 10 Sudeste 0 -- -- 22
2020-07-18 19:00:00 32.7 5 Sudeste 17 Sudeste 0 -- -- 19
2020-07-18 18:00:00 33.1 10 Sudeste 17 Sudeste 0 -- -- 16
2020-07-18 17:00:00 33 8 Este 20 Este 0 -- -- 16
2020-07-18 16:00:00 33.3 9 Este 17 Sudeste 0 -- -- 18
2020-07-18 15:00:00 33.7 9 Sudeste 19 Sudeste 0 -- -- 16
2020-07-18 14:00:00 33 9 Sudeste 17 Sudeste 0 -- -- 13
2020-07-18 13:00:00 32.9 9 Sudeste 16 Sudeste 0 -- -- 11
2020-07-18 12:00:00 32.4 10 Sudeste 16 Este 0 -- -- 14
2020-07-18 11:00:00 31.1 9 Sudeste 15 Sudeste 0 -- -- 16
2020-07-18 10:00:00 29.9 5 Sudeste 10 Sudeste 0 -- -- 16
2020-07-18 09:00:00 25.8 2 Norte 7 Norte 0 -- -- 25
2020-07-18 08:00:00 23.3 5 Norte 8 Norte 0 -- -- 27
2020-07-18 07:00:00 23.2 6 Norte 8 Norte 0 -- -- 28
2020-07-18 06:00:00 23.6 6 Norte 8 Norte 0 -- -- 24
2020-07-18 05:00:00 23.7 5 Norte 7 Norte 0 -- -- 24
2020-07-18 04:00:00 23.6 4 Norte 9 Norte 0 -- -- 23
2020-07-18 03:00:00 23.9 7 Norte 10 Norte 0 -- -- 23
2020-07-18 02:00:00 23.4 7 Norte 9 Norte 0 -- -- 18
2020-07-18 01:00:00 23.4 7 Norte 9 Norte 0 -- -- 16
2020-07-18 00:00:00 24.1 6 Norte 9 Norte 0 -- -- 16
2020-07-17 23:00:00 24.5 5 Norte 9 Norte 0 -- -- 15
2020-07-17 22:00:00 25.7 5 Norte 7 Norte 0 -- -- 14
2020-07-17 21:00:00 27.2 2 Norte 5 Norte 0 -- -- 13
2020-07-17 20:00:00 28.1 0 Calma 10 Sur 0 -- -- 15
2020-07-17 19:00:00 28.9 5 Sudeste 17 Sur 0 -- -- 25
2020-07-17 18:00:00 30.5 9 Sur 14 Sur 0 -- -- 25
2020-07-17 17:00:00 31.2 6 Sudeste 14 Sudeste 0 -- -- 8
2020-07-17 16:00:00 30.1 8 Sudeste 21 Sudeste 0 -- -- 22
2020-07-17 15:00:00 30.2 8 Sudeste 17 Sudeste 0 -- -- 21
2020-07-17 14:00:00 29.7 9 Sudeste 17 Sudeste 0 -- -- 18
2020-07-17 13:00:00 29.8 8 Sudeste 16 Sur 0 -- -- 21
2020-07-17 12:00:00 29.2 9 Sudeste 15 Sudeste 0 -- -- 23
2020-07-17 11:00:00 27.4 6 Este 15 Este 0 -- -- 25
2020-07-17 10:00:00 26.8 6 Este 14 Nordeste 0 -- -- 28
2020-07-17 09:00:00 24.5 5 Nordeste 12 Este 0 -- -- 31
2020-07-17 08:00:00 19.9 6 Norte 10 Norte 0 -- -- 34
2020-07-17 07:00:00 19.7 5 Norte 9 Norte 0 -- -- 34
2020-07-17 06:00:00 20.2 6 Norte 9 Norte 0 -- -- 33
2020-07-17 05:00:00 20.1 4 Norte 10 Norte 0 -- -- 32
2020-07-17 04:00:00 20 6 Norte 10 Norte 0 -- -- 32
2020-07-17 03:00:00 20.8 5 Norte 9 Norte 0 -- -- 33
2020-07-17 02:00:00 21.2 5 Norte 9 Norte 0 -- -- 33
2020-07-17 01:00:00 21.6 5 Norte 10 Norte 0 -- -- 31
2020-07-17 00:00:00 21.7 5 Norte 10 Norte 0 -- -- 28
2020-07-16 23:00:00 22.1 5 Norte 9 Norte 0 -- -- 26
2020-07-16 22:00:00 22.8 5 Norte 12 Norte 0 -- -- 27
2020-07-16 21:00:00 25.3 3 Norte 10 Este 0 -- -- 29
2020-07-16 20:00:00 26.6 5 Este 14 Este 0 -- -- 30
2020-07-16 19:00:00 27.3 7 Este 16 Este 0 -- -- 29
2020-07-16 18:00:00 27.7 7 Este 15 Sudeste 0 -- -- 28
2020-07-16 17:00:00 27.8 6 Este 17 Este 0 -- -- 28
2020-07-16 16:00:00 28 9 Este 23 Este 0 -- -- 28
2020-07-16 15:00:00 27.8 9 Este 18 Sudeste 0 -- -- 30
2020-07-16 14:00:00 28 10 Este 18 Sudeste 0 -- -- 27
2020-07-16 13:00:00 27.9 9 Sudeste 16 Sudeste 0 -- -- 28
2020-07-16 12:00:00 26.9 11 Sudeste 19 Sudeste 0 -- -- 26
2020-07-16 11:00:00 27.2 10 Sudeste 19 Este 0 -- -- 25
2020-07-16 10:00:00 26.6 4 Este 12 Nordeste 0 -- -- 25
2020-07-16 09:00:00 22.9 4 Este 9 Sudeste 0 -- -- 31
2020-07-16 08:00:00 18.9 7 Norte 12 Norte 0 -- -- 33
2020-07-16 07:00:00 18.8 7 Norte 9 Norte 0 -- -- 33
2020-07-16 06:00:00 18.7 7 Norte 10 Noroeste 0 -- -- 34
2020-07-16 05:00:00 18.7 6 Norte 8 Norte 0 -- -- 39
2020-07-16 04:00:00 19.3 6 Norte 9 Norte 0 -- -- 37
2020-07-16 03:00:00 19.8 6 Norte 10 Norte 0 -- -- 35
2020-07-16 02:00:00 20.1 6 Norte 10 Norte 0 -- -- 33
2020-07-16 01:00:00 20.1 7 Norte 12 Norte 0 -- -- 26
2020-07-16 00:00:00 21.2 7 Norte 15 Noroeste 0 -- -- 22
2020-07-15 23:00:00 21.2 7 Norte 15 Norte 0 -- -- 21
2020-07-15 22:00:00 22.2 5 Norte 14 Norte 0 -- -- 19
2020-07-15 21:00:00 23.4 8 Norte 27 Norte 0 -- -- 21
2020-07-15 20:00:00 26.3 10 Norte 26 Norte 0 -- -- 23
2020-07-15 19:00:00 29 7 Nordeste 19 Norte 0 -- -- 15
2020-07-15 18:00:00 30.3 7 Norte 29 Nordeste 0 -- -- 14
2020-07-15 17:00:00 29.7 9 Nordeste 26 Este 0 -- -- 18
2020-07-15 16:00:00 30 12 Este 22 Este 0 -- -- 19
2020-07-15 15:00:00 29.5 13 Sudeste 23 Norte 0 -- -- 25
2020-07-15 14:00:00 29.6 10 Nordeste 26 Este 0 -- -- 21
2020-07-15 13:00:00 28.9 10 Este 23 Este 0 -- -- 21
2020-07-15 12:00:00 28.4 10 Este 21 Este 0 -- -- 21
2020-07-15 11:00:00 27.3 10 Sudeste 21 Norte 0 -- -- 29
2020-07-15 10:00:00 26.9 9 Norte 23 Norte 0 -- -- 20
2020-07-15 09:00:00 24.9 5 Nordeste 15 Norte 0 -- -- 22
2020-07-15 08:00:00 20.2 5 Norte 13 Sudeste 0 -- -- 27
2020-07-15 07:00:00 22 8 Este 31 Norte 0 -- -- 27
2020-07-15 06:00:00 21.9 10 Noroeste 33 Noroeste 0 -- -- 23
2020-07-15 05:00:00 22 14 Norte 39 Norte 0 -- -- 21
2020-07-15 04:00:00 21.2 10 Nordeste 31 Nordeste 0 -- -- 28
2020-07-15 03:00:00 20.5 13 Norte 29 Norte 0 -- -- 43
2020-07-15 02:00:00 21.2 10 Norte 32 Nordeste 0 -- -- 40
2020-07-15 01:00:00 21.2 9 Norte 33 Norte 0 -- -- 41
2020-07-15 00:00:00 22.7 13 Norte 51 Nordeste 0 -- -- 35